Pagina principale
METAR-TAF:

METAR-TAF

Aeroporti :

Aeroporto di Torino-Caselle

Torino, Italia

latitudine: 45-13N, longitudine: 007-39E, altezza: 301 m

Osservazione

Il bollettino è stato emesso 42 minuti fa, alle 04:20 UTC
Vento 4 kt da nord/nord-ovest
Temperature 17°C
Umidità 82%
Pressione 1015 hPa
Visibilità 10 km o più
Poco nuvoloso ad un'altezza di 6000 ft

METAR: LIMF 030420Z 34004KT 9999 FEW060 17/14 Q1015

Ora: 07:02 (05:02 UTC)

Previsione

Il bollettino è stato emesso 6 ore e 2 minuti fa, alle 23:00 UTC
Previsione valida dal 03 alle 00 UTC al 03 alle 24 UTC
Vento 5 kt da direzioni variabili
Visibilità 10 km o più
Nubi sparse ad un'altezza di 6000 ft
Temporaneamente
dal 03 alle 12 UTC al 03 alle 21 UTC
Visibilità: 4000 m
temporale, pioggia

TAF: LIMF 022300Z 0300/0324 VRB05KT 9999 SCT060 TEMPO 0312/0321 4000 TSRA

Osservazioni e previsioni meteorologiche di più di 4000 aeroporti (messaggi METAR e TAF).

Le stazioni disponibili sono rappresentate dai dischi gialli e rossi sulla carta.

Puntare il mouse per vedere il nome della stazione.

Clicca sopra per visualizzare le osservazioni e previsioni meteorologiche.

Per cambiare la mappa : fare clic sui pulsanti verdi con una croce nera per ingrandire, il pulsante verde con un trattino per diminuire, o sulla freccia verde per le mappe adiacenti.


METAR-TAF: